Time;durP1;ratioP1;P1;durP2;ratioP2;P2;SDS_P1;SDS_P2;PMS_P1;PMS_P2;Temp;Humidity;BMP_temperature;BMP_pressure;BME280_temperature;BME280_humidity;BME280_pressure;Samples;Min_cycle;Max_cycle;Signal;HPM_P1;HPM_P2
2022/12/30 00:01:31;;;;;;;2.77;1.50;;;;;;;7.54;100.00;99978.03;4861981;29;20053;-81
2022/12/30 00:03:58;;;;;;;3.27;1.27;;;;;;;7.48;100.00;99988.66;4846504;29;20033;-80
2022/12/30 00:06:25;;;;;;;3.67;1.40;;;;;;;7.48;100.00;99994.78;4860058;29;20045;-81
2022/12/30 00:08:54;;;;;;;2.50;1.50;;;;;;;7.37;100.00;100001.13;4846833;29;20045;-80
2022/12/30 00:11:33;;;;;;;4.90;1.40;;;;;;;7.53;100.00;100002.56;4859991;29;20507;-80
2022/12/30 00:34:19;;;;;;;2.70;1.03;;;;;;;7.60;100.00;100033.13;4862813;29;20062;-81
2022/12/30 00:36:47;;;;;;;2.13;1.10;;;;;;;7.65;100.00;100033.91;4847650;29;20052;-81
2022/12/30 00:39:14;;;;;;;6.40;2.03;;;;;;;7.64;100.00;100055.81;4865345;29;20056;-81
2022/12/30 00:44:26;;;;;;;2.67;1.30;;;;;;;7.63;100.00;100068.09;4846424;29;20066;-80
2022/12/30 00:46:54;;;;;;;3.80;1.20;;;;;;;7.67;100.00;100065.44;4860702;29;20070;-79
2022/12/30 00:57:37;;;;;;;3.63;1.40;;;;;;;7.57;100.00;100077.88;4865911;29;20148;-80
2022/12/30 01:00:06;;;;;;;5.37;2.27;;;;;;;7.56;100.00;100071.72;4847311;29;20049;-80
2022/12/30 01:02:33;;;;;;;4.53;1.30;;;;;;;7.45;100.00;100073.69;4863403;29;20037;-80
2022/12/30 01:04:59;;;;;;;2.67;1.63;;;;;;;7.45;100.00;100078.06;4832648;29;21604;-82
2022/12/30 01:07:27;;;;;;;2.90;1.37;;;;;;;7.54;100.00;100077.91;4846336;29;20045;-80
2022/12/30 01:09:56;;;;;;;3.90;1.47;;;;;;;7.47;100.00;100073.66;4861280;29;20504;-80
2022/12/30 01:12:23;;;;;;;4.60;1.60;;;;;;;7.48;100.00;100092.03;4847515;29;20090;-81
2022/12/30 01:14:52;;;;;;;3.83;1.50;;;;;;;7.35;100.00;100095.75;4831434;29;20041;-80
2022/12/30 01:17:21;;;;;;;6.07;1.50;;;;;;;7.43;100.00;100101.75;4848354;29;20450;-81
2022/12/30 01:19:48;;;;;;;3.13;1.23;;;;;;;7.44;100.00;100102.63;4844557;29;20080;-80
2022/12/30 01:22:14;;;;;;;2.50;1.00;;;;;;;7.36;100.00;100105.38;4862991;29;20101;-80
2022/12/30 01:24:41;;;;;;;6.33;1.80;;;;;;;7.35;100.00;100106.25;4848442;29;20565;-80
2022/12/30 01:27:11;;;;;;;4.67;1.30;;;;;;;7.28;100.00;100107.25;4847691;29;20060;-81
2022/12/30 01:29:41;;;;;;;4.27;1.40;;;;;;;7.31;100.00;100113.34;4847006;29;20052;-81
2022/12/30 01:32:16;;;;;;;3.67;1.37;;;;;;;7.17;100.00;100115.31;4849361;29;20526;-80
2022/12/30 01:34:46;;;;;;;2.80;1.37;;;;;;;7.13;100.00;100124.09;4848602;29;20045;-81
2022/12/30 01:37:13;;;;;;;3.63;1.73;;;;;;;7.08;100.00;100128.59;4849028;29;20336;-80
2022/12/30 01:39:40;;;;;;;4.13;1.70;;;;;;;7.10;100.00;100134.69;4851210;29;20056;-80
2022/12/30 01:42:19;;;;;;;3.73;1.77;;;;;;;7.02;100.00;100131.28;4848572;29;20076;-80
2022/12/30 01:44:49;;;;;;;3.33;1.30;;;;;;;6.90;100.00;100144.59;4862025;29;20082;-80
2022/12/30 01:47:29;;;;;;;2.27;1.40;;;;;;;7.12;100.00;100129.38;4851467;29;20546;-80
2022/12/30 01:50:03;;;;;;;2.77;1.50;;;;;;;7.01;100.00;100140.06;4848176;29;20042;-80
2022/12/30 01:52:29;;;;;;;;;;;;;;;7.00;100.00;100141.81;4869986;29;20041;-80
2022/12/30 01:55:01;;;;;;;3.73;1.10;;;;;;;7.02;100.00;100153.16;4863254;29;19924;-80
2022/12/30 01:57:29;;;;;;;4.33;1.47;;;;;;;6.99;100.00;100152.34;4846059;29;20054;-80
2022/12/30 01:59:58;;;;;;;4.20;1.43;;;;;;;7.00;100.00;100156.72;4842523;29;20046;-81
2022/12/30 02:02:25;;;;;;;2.20;1.30;;;;;;;7.08;100.00;100153.97;4855445;29;20045;-80
2022/12/30 02:04:52;;;;;;;2.57;1.40;;;;;;;7.11;100.00;100165.31;4841145;29;20978;-80
2022/12/30 02:07:27;;;;;;;4.80;1.23;;;;;;;7.12;100.00;100167.03;4854066;29;20042;-80
2022/12/30 02:09:56;;;;;;;4.87;1.77;;;;;;;7.13;100.00;100171.41;4851556;29;20049;-81
2022/12/30 02:12:23;;;;;;;4.23;2.00;;;;;;;7.12;100.00;100177.53;4841806;29;20048;-81
2022/12/30 02:14:55;;;;;;;5.37;1.43;;;;;;;7.13;100.00;100183.66;4839664;29;20538;-80
2022/12/30 02:17:24;;;;;;;2.47;1.30;;;;;;;7.20;100.00;100178.31;4855843;29;20046;-80
2022/12/30 02:20:11;;;;;;;3.50;1.60;;;;;;;7.18;100.00;100190.59;4853087;29;20684;-80
2022/12/30 02:23:03;;;;;;;5.37;1.97;;;;;;;7.20;100.00;100198.44;4853180;29;20734;-79
2022/12/30 02:25:51;;;;;;;3.40;1.60;;;;;;;7.22;100.00;100197.53;4837329;29;20696;-80
2022/12/30 02:28:38;;;;;;;2.33;1.57;;;;;;;7.30;100.00;100189.53;4859699;29;20053;-79
2022/12/30 02:31:31;;;;;;;3.77;1.90;;;;;;;7.19;100.00;100199.34;4823833;29;20045;-80
2022/12/30 02:34:15;;;;;;;3.80;1.37;;;;;;;7.21;100.00;100198.44;4858857;29;20037;-81
2022/12/30 02:36:46;;;;;;;2.53;1.80;;;;;;;7.17;100.00;100199.38;4858718;29;20045;-80
2022/12/30 02:39:33;;;;;;;2.57;1.50;;;;;;;7.24;99.37;100203.66;4859381;29;20101;-81
2022/12/30 02:45:09;;;;;;;2.83;1.80;;;;;;;7.28;97.60;100207.09;4864984;29;20421;-81
2022/12/30 02:48:29;;;;;;;2.50;1.60;;;;;;;7.24;98.91;100213.31;4862695;29;20410;-81
2022/12/30 02:53:42;;;;;;;5.20;2.20;;;;;;;7.17;98.80;100220.38;4866466;29;20045;-80
2022/12/30 02:56:08;;;;;;;4.20;1.90;;;;;;;7.21;98.78;100208.06;4851050;29;20053;-80
2022/12/30 02:58:37;;;;;;;3.57;1.80;;;;;;;7.17;98.44;100207.25;4866329;29;20102;-80
2022/12/30 03:04:54;;;;;;;4.70;2.23;;;;;;;7.04;98.92;100219.66;4854963;29;20086;-80
2022/12/30 03:07:24;;;;;;;4.10;1.80;;;;;;;7.02;100.00;100220.59;4866763;29;20215;-80
2022/12/30 03:12:51;;;;;;;2.93;1.73;;;;;;;7.00;99.57;100227.63;4864328;29;20034;-79
2022/12/30 03:15:22;;;;;;;5.50;2.20;;;;;;;7.00;98.10;100230.25;4866376;29;20752;-80
2022/12/30 03:17:49;;;;;;;4.47;1.90;;;;;;;6.95;99.70;100225.03;4913769;23;20755;-80
2022/12/30 03:20:18;;;;;;;5.87;2.27;;;;;;;6.97;98.81;100225.03;4835589;29;20103;-81
2022/12/30 03:28:18;;;;;;;5.60;2.13;;;;;;;6.70;100.00;100244.59;4819657;29;20497;-81
2022/12/30 03:30:49;;;;;;;7.43;2.37;;;;;;;6.62;100.00;100249.94;4837634;29;20035;-80
2022/12/30 03:33:16;;;;;;;7.10;3.03;;;;;;;6.58;100.00;100237.75;4810540;29;20050;-81
2022/12/30 03:35:50;;;;;;;5.23;2.33;;;;;;;6.41;100.00;100247.56;4810212;29;20412;-81
2022/12/30 03:38:19;;;;;;;4.53;2.08;;;;;;;6.35;100.00;100258.09;4815660;29;20042;-81
2022/12/30 03:40:47;;;;;;;6.03;2.30;;;;;;;6.21;100.00;100253.84;4805352;29;20073;-80
2022/12/30 03:43:15;;;;;;;3.60;1.90;;;;;;;6.23;100.00;100253.84;4821578;29;20062;-81
2022/12/30 03:45:42;;;;;;;6.10;2.17;;;;;;;6.32;100.00;100255.53;4819956;29;20042;-81
2022/12/30 03:48:09;;;;;;;6.67;2.17;;;;;;;6.34;100.00;100259.84;4835954;29;20054;-82
2022/12/30 03:50:35;;;;;;;7.90;2.50;;;;;;;6.36;100.00;100259.84;4819784;29;20121;-80
2022/12/30 03:53:02;;;;;;;5.73;2.07;;;;;;;6.44;100.00;100252.75;4811388;29;20046;-81
2022/12/30 03:55:28;;;;;;;5.13;2.10;;;;;;;6.46;100.00;100256.22;4835193;29;20046;-80
2022/12/30 03:57:55;;;;;;;6.90;2.47;;;;;;;6.34;100.00;100256.38;4833128;29;20057;-81
2022/12/30 04:00:22;;;;;;;8.00;3.23;;;;;;;6.36;100.00;100262.47;4805760;29;20050;-81
2022/12/30 04:02:48;;;;;;;6.53;2.40;;;;;;;6.42;100.00;100268.53;4791180;29;20045;-81
2022/12/30 04:05:15;;;;;;;8.43;2.93;;;;;;;6.36;100.00;100280.81;4832172;29;20081;-80
2022/12/30 04:07:42;;;;;;;5.30;2.33;;;;;;;6.45;100.00;100278.13;4835565;29;20050;-81
2022/12/30 04:10:09;;;;;;;6.77;2.20;;;;;;;6.45;100.00;100272.88;4808332;29;20073;-81
2022/12/30 04:12:35;;;;;;;5.97;2.23;;;;;;;6.37;100.00;100280.81;4823611;29;20050;-81
2022/12/30 04:15:02;;;;;;;7.50;2.27;;;;;;;6.42;100.00;100278.16;4836690;29;20046;-81
2022/12/30 04:17:29;;;;;;;4.20;2.13;;;;;;;6.38;100.00;100282.53;4820835;29;20069;-81
2022/12/30 04:19:55;;;;;;;4.90;2.90;;;;;;;6.40;100.00;100286.06;4821389;29;20046;-81
2022/12/30 04:22:22;;;;;;;5.37;2.20;;;;;;;6.19;100.00;100279.22;4837693;29;20050;-81
2022/12/30 04:24:49;;;;;;;4.77;2.47;;;;;;;6.23;100.00;100269.59;4806307;29;20051;-81
2022/12/30 04:27:23;;;;;;;5.20;2.67;;;;;;;6.18;100.00;100272.25;4821876;29;20137;-80
2022/12/30 04:29:49;;;;;;;6.50;2.27;;;;;;;6.11;100.00;100281.03;4835655;29;20050;-80
2022/12/30 04:32:16;;;;;;;6.43;3.13;;;;;;;6.16;100.00;100283.66;4822756;29;20050;-81
2022/12/30 04:34:43;;;;;;;3.93;2.20;;;;;;;6.13;100.00;100295.00;4818798;29;20038;-81
2022/12/30 04:37:09;;;;;;;6.33;2.57;;;;;;;6.09;100.00;100293.31;4819552;29;20043;-81
2022/12/30 04:39:36;;;;;;;7.70;2.50;;;;;;;5.98;100.00;100289.91;4833998;29;20116;-81
2022/12/30 04:42:02;;;;;;;7.37;3.23;;;;;;;5.92;100.00;100289.94;4806292;29;20501;-81
2022/12/30 04:44:29;;;;;;;7.20;2.77;;;;;;;5.88;100.00;100283.81;4820349;29;20481;-81
2022/12/30 04:46:56;;;;;;;6.37;2.40;;;;;;;5.87;100.00;100291.69;4819129;29;20046;-82
2022/12/30 04:49:22;;;;;;;4.60;2.17;;;;;;;5.87;100.00;100303.03;4819314;29;21605;-80
2022/12/30 04:51:49;;;;;;;6.80;2.70;;;;;;;5.82;100.00;100301.34;4803650;29;20141;-81
2022/12/30 04:54:16;;;;;;;6.40;2.20;;;;;;;5.77;100.00;100311.00;4810391;29;20041;-81
2022/12/30 04:56:43;;;;;;;7.73;3.07;;;;;;;5.87;100.00;100316.16;4835241;29;20045;-81
2022/12/30 04:59:09;;;;;;;5.23;2.13;;;;;;;5.76;100.00;100323.22;4820558;29;20046;-82
2022/12/30 05:01:36;;;;;;;10.40;2.67;;;;;;;5.76;100.00;100319.75;4820209;29;20393;-81
2022/12/30 05:04:03;;;;;;;5.40;3.30;;;;;;;5.68;100.00;100321.53;4812863;29;20043;-81
2022/12/30 05:06:29;;;;;;;8.90;2.50;;;;;;;5.63;100.00;100325.06;4819799;29;20049;-80
2022/12/30 05:08:56;;;;;;;7.17;2.63;;;;;;;5.74;100.00;100334.59;4820175;29;20091;-81
2022/12/30 05:11:23;;;;;;;7.80;2.60;;;;;;;5.79;100.00;100338.06;4826153;29;20440;-81
2022/12/30 05:13:49;;;;;;;7.70;2.67;;;;;;;5.82;100.00;100344.16;4819775;29;20102;-81
2022/12/30 05:16:16;;;;;;;5.53;2.70;;;;;;;5.80;100.00;100352.91;4833500;29;20042;-82
2022/12/30 05:18:43;;;;;;;10.40;2.93;;;;;;;5.79;100.00;100362.50;4809711;29;20047;-82
2022/12/30 05:21:09;;;;;;;6.90;2.47;;;;;;;5.78;100.00;100360.78;4831116;29;20061;-81
2022/12/30 05:26:21;;;;;;;6.03;2.13;;;;;;;5.74;100.00;100376.56;4832513;29;20065;-81
2022/12/30 05:28:48;;;;;;;5.63;3.03;;;;;;;5.68;100.00;100366.09;4819889;29;20054;-82
2022/12/30 05:31:17;;;;;;;6.40;3.03;;;;;;;5.70;100.00;100372.19;4820095;29;20569;-81
2022/12/30 05:33:44;;;;;;;8.57;2.77;;;;;;;5.65;100.00;100388.81;4789855;29;20049;-81
2022/12/30 05:36:11;;;;;;;6.23;2.47;;;;;;;5.67;100.00;100377.47;4808656;29;20042;-81
2022/12/30 05:38:37;;;;;;;7.80;2.83;;;;;;;5.70;100.00;100390.53;4805443;29;20138;-82
2022/12/30 05:41:05;;;;;;;5.53;2.33;;;;;;;5.64;100.00;100386.22;4804936;29;21101;-81
2022/12/30 05:43:41;;;;;;;7.83;3.80;;;;;;;5.71;100.00;100390.53;4824834;29;20129;-82
2022/12/30 05:46:07;;;;;;;5.47;2.60;;;;;;;5.61;100.00;100397.56;4812372;29;20050;-81
2022/12/30 05:48:34;;;;;;;7.33;3.10;;;;;;;5.69;100.00;100392.28;4822307;29;20136;-81
2022/12/30 05:51:01;;;;;;;11.17;3.23;;;;;;;5.66;100.00;100394.94;4835790;29;20062;-81
2022/12/30 05:53:28;;;;;;;5.33;2.10;;;;;;;5.69;100.00;100396.66;4816717;29;20469;-81
2022/12/30 05:55:54;;;;;;;6.07;2.40;;;;;;;5.65;100.00;100401.06;4834465;29;20051;-82
2022/12/30 05:58:21;;;;;;;6.23;1.90;;;;;;;5.49;100.00;100405.50;4803086;29;20050;-81
2022/12/30 06:00:48;;;;;;;6.03;3.03;;;;;;;5.61;100.00;100413.28;4836127;29;20098;-81
2022/12/30 06:03:14;;;;;;;5.23;2.90;;;;;;;5.63;100.00;100427.28;4825377;29;20059;-81
2022/12/30 06:05:42;;;;;;;9.23;2.63;;;;;;;5.62;100.00;100430.75;4815236;29;20048;-82
2022/12/30 06:08:10;;;;;;;7.87;2.20;;;;;;;5.61;100.00;100428.13;4811624;29;20079;-82
2022/12/30 06:10:36;;;;;;;6.57;2.97;;;;;;;5.50;100.00;100429.94;4831746;29;20050;-80
2022/12/30 06:13:03;;;;;;;10.73;2.63;;;;;;;5.45;100.00;100440.41;4830964;29;20069;-80
2022/12/30 06:15:29;;;;;;;8.50;2.63;;;;;;;5.49;100.00;100441.31;4831444;29;20050;-82
2022/12/30 06:17:56;;;;;;;6.50;2.27;;;;;;;5.49;100.00;100439.53;4833595;29;20108;-80
2022/12/30 06:20:23;;;;;;;7.07;2.30;;;;;;;5.56;100.00;100450.88;4807947;29;20034;-80
2022/12/30 06:22:50;;;;;;;6.17;2.50;;;;;;;5.49;100.00;100450.03;4807733;29;20081;-80
2022/12/30 06:25:16;;;;;;;6.00;2.43;;;;;;;5.48;100.00;100448.28;4824337;29;20501;-81
2022/12/30 06:27:43;;;;;;;9.77;2.40;;;;;;;5.45;100.00;100457.88;4805351;29;20038;-82
2022/12/30 06:30:10;;;;;;;5.07;2.43;;;;;;;5.31;100.00;100457.94;4835823;29;20409;-82
2022/12/30 06:32:37;;;;;;;7.13;3.10;;;;;;;5.25;100.00;100450.09;4821714;29;20047;-81
2022/12/30 06:35:05;;;;;;;8.20;2.73;;;;;;;5.25;100.00;100465.81;4805242;29;20061;-81
2022/12/30 06:37:31;;;;;;;6.70;2.60;;;;;;;5.42;100.00;100456.16;4824347;29;20045;-83
2022/12/30 06:39:58;;;;;;;9.40;3.77;;;;;;;5.46;100.00;100468.34;4820859;29;20043;-83
2022/12/30 06:42:26;;;;;;;7.40;3.30;;;;;;;5.47;100.00;100464.88;4828293;29;20054;-83
2022/12/30 06:44:52;;;;;;;6.77;3.03;;;;;;;5.43;100.00;100472.75;4837159;29;20046;-82
2022/12/30 06:47:19;;;;;;;7.43;2.67;;;;;;;5.36;100.00;100477.13;4801864;29;20063;-81
2022/12/30 06:49:45;;;;;;;8.50;3.03;;;;;;;5.27;100.00;100475.41;4837261;29;20050;-81
2022/12/30 06:52:12;;;;;;;7.40;2.90;;;;;;;5.23;100.00;100481.53;4822520;29;20397;-82
2022/12/30 06:54:39;;;;;;;6.93;2.53;;;;;;;5.27;100.00;100483.25;4806995;29;20458;-81
2022/12/30 06:57:05;;;;;;;4.93;2.53;;;;;;;5.34;100.00;100487.59;4835159;29;20110;-81
2022/12/30 06:59:32;;;;;;;5.53;2.87;;;;;;;5.25;100.00;100492.88;4821345;29;20103;-82
2022/12/30 07:01:59;;;;;;;10.00;3.83;;;;;;;5.20;100.00;100494.59;4824879;29;20042;-82
2022/12/30 07:04:25;;;;;;;6.97;2.47;;;;;;;5.29;100.00;100491.97;4807725;29;20050;-82
2022/12/30 07:06:52;;;;;;;7.67;3.03;;;;;;;5.25;100.00;100505.97;4833934;29;20562;-82
2022/12/30 07:09:19;;;;;;;7.37;3.27;;;;;;;5.17;100.00;100504.22;4838393;29;20047;-81
2022/12/30 07:11:46;;;;;;;4.70;2.63;;;;;;;5.16;100.00;100508.59;4815148;29;20050;-83
2022/12/30 07:14:12;;;;;;;7.80;2.57;;;;;;;5.03;100.00;100518.19;4837281;29;20043;-82
2022/12/30 07:16:39;;;;;;;6.50;2.63;;;;;;;5.09;100.00;100518.19;4807238;29;20410;-82
2022/12/30 07:19:05;;;;;;;8.63;2.80;;;;;;;4.98;100.00;100527.81;4832958;29;20054;-82
2022/12/30 07:21:32;;;;;;;7.97;2.57;;;;;;;4.85;100.00;100525.16;4836987;29;20042;-83
2022/12/30 07:23:59;;;;;;;10.17;4.40;;;;;;;4.84;100.00;100540.00;4805230;29;20069;-83
2022/12/30 07:26:25;;;;;;;11.47;3.10;;;;;;;4.90;100.00;100539.16;4836682;29;20042;-83
2022/12/30 07:28:53;;;;;;;7.83;2.33;;;;;;;4.99;100.00;100547.88;4806659;29;20050;-83
2022/12/30 07:31:20;;;;;;;4.20;2.60;;;;;;;4.82;100.00;100549.63;4821417;29;20053;-82
2022/12/30 07:33:47;;;;;;;6.53;2.80;;;;;;;4.80;100.00;100553.97;4822449;29;20042;-83
2022/12/30 07:36:14;;;;;;;7.90;3.07;;;;;;;4.80;100.00;100564.44;4830805;29;20053;-82
2022/12/30 07:38:40;;;;;;;10.77;3.00;;;;;;;4.79;100.00;100574.03;4823306;29;20046;-83
2022/12/30 07:41:07;;;;;;;6.60;2.40;;;;;;;4.68;100.00;100575.75;4820077;29;20043;-82
2022/12/30 07:43:33;;;;;;;9.33;2.83;;;;;;;4.76;100.00;100583.63;4838100;29;20652;-83
2022/12/30 07:46:05;;;;;;;6.97;2.77;;;;;;;4.80;100.00;100583.63;4823319;29;20050;-82
2022/12/30 07:48:32;;;;;;;7.13;3.10;;;;;;;4.82;100.00;100580.16;4811098;29;20508;-81
2022/12/30 07:50:59;;;;;;;6.43;3.07;;;;;;;4.92;100.00;100585.38;4806743;29;20050;-82
2022/12/30 07:53:26;;;;;;;8.53;2.73;;;;;;;4.83;100.00;100585.38;4822247;29;20465;-83
2022/12/30 07:55:52;;;;;;;11.63;3.17;;;;;;;4.91;100.00;100582.78;4825810;29;20095;-83
2022/12/30 07:58:19;;;;;;;8.40;2.67;;;;;;;4.98;100.00;100595.88;4809056;29;20050;-82
2022/12/30 08:00:46;;;;;;;8.97;2.83;;;;;;;5.00;100.00;100590.63;4835282;29;20437;-83
2022/12/30 08:03:12;;;;;;;5.67;2.30;;;;;;;4.91;100.00;100598.47;4815999;29;20042;-83
2022/12/30 08:05:39;;;;;;;11.20;3.00;;;;;;;4.90;100.00;100597.63;4832883;29;20050;-82
2022/12/30 08:08:07;;;;;;;8.43;2.60;;;;;;;4.89;100.00;100606.34;4822547;29;20050;-83
2022/12/30 08:10:33;;;;;;;5.47;2.30;;;;;;;4.96;100.00;100602.88;4835272;29;20069;-85
2022/12/30 08:13:00;;;;;;;4.87;2.47;;;;;;;4.94;100.00;100598.47;4818446;29;20137;-82
2022/12/30 08:15:27;;;;;;;8.23;2.50;;;;;;;4.96;100.00;100605.47;4820070;29;20042;-83
2022/12/30 08:17:54;;;;;;;7.70;2.70;;;;;;;4.99;100.00;100597.63;4805728;29;20047;-82
2022/12/30 08:20:20;;;;;;;6.87;2.90;;;;;;;5.19;100.00;100609.84;4822541;29;20046;-82
2022/12/30 08:22:47;;;;;;;4.03;2.60;;;;;;;5.16;100.00;100607.25;4823417;29;20042;-82
2022/12/30 08:25:14;;;;;;;6.27;2.53;;;;;;;5.22;100.00;100607.25;4818087;29;20038;-85
2022/12/30 08:27:40;;;;;;;4.40;2.27;;;;;;;5.35;100.00;100608.97;4802054;29;20053;-86
2022/12/30 08:30:08;;;;;;;12.37;2.73;;;;;;;5.39;100.00;100607.25;4837433;29;20193;-81
2022/12/30 08:32:34;;;;;;;4.10;2.40;;;;;;;5.41;100.00;100611.63;4820641;29;20031;-80
2022/12/30 08:35:01;;;;;;;7.20;2.67;;;;;;;5.57;100.00;100618.59;4822469;29;20042;-82
2022/12/30 08:37:29;;;;;;;4.83;2.13;;;;;;;5.62;100.00;100616.81;4837113;29;20102;-82
2022/12/30 08:39:56;;;;;;;9.10;2.40;;;;;;;5.67;100.00;100608.97;4807218;29;20091;-82
2022/12/30 08:42:22;;;;;;;7.30;3.17;;;;;;;5.90;100.00;100607.22;4836478;29;20489;-83
2022/12/30 08:44:49;;;;;;;8.00;2.50;;;;;;;5.92;100.00;100620.31;4820613;29;20038;-81
2022/12/30 08:47:16;;;;;;;5.37;2.40;;;;;;;5.92;100.00;100622.94;4812287;29;20055;-82
2022/12/30 08:49:43;;;;;;;7.53;2.67;;;;;;;5.96;100.00;100622.03;4809949;29;20042;-81
2022/12/30 08:52:09;;;;;;;17.87;3.40;;;;;;;5.95;100.00;100620.31;4835759;29;20507;-83
2022/12/30 08:54:36;;;;;;;5.87;2.50;;;;;;;5.93;100.00;100620.31;4818350;29;20046;-81
2022/12/30 08:57:03;;;;;;;8.27;2.50;;;;;;;6.00;100.00;100636.03;4811103;29;20047;-81
2022/12/30 08:59:29;;;;;;;6.37;2.07;;;;;;;6.02;100.00;100632.53;4807418;29;20043;-81
2022/12/30 09:01:56;;;;;;;8.80;2.63;;;;;;;5.99;100.00;100632.53;4812029;29;20129;-81
2022/12/30 09:04:23;;;;;;;5.17;2.30;;;;;;;5.88;100.00;100626.38;4830889;29;20046;-81
2022/12/30 09:06:50;;;;;;;8.70;3.57;;;;;;;5.87;100.00;100625.53;4841888;29;21571;-81
2022/12/30 09:09:16;;;;;;;7.67;2.50;;;;;;;5.82;100.00;100627.31;4817385;29;20050;-81
2022/12/30 09:11:43;;;;;;;4.30;2.20;;;;;;;5.92;100.00;100631.69;4820817;29;20051;-82
2022/12/30 09:14:12;;;;;;;7.70;2.83;;;;;;;5.77;100.00;100629.03;4822218;29;20516;-83
2022/12/30 09:16:39;;;;;;;7.97;2.97;;;;;;;5.76;100.00;100634.28;4805629;29;20496;-80
2022/12/30 09:19:06;;;;;;;6.50;2.63;;;;;;;5.77;100.00;100642.16;4816474;29;20103;-86
2022/12/30 09:21:33;;;;;;;6.13;3.57;;;;;;;5.96;100.00;100642.16;4824576;29;20046;-83
2022/12/30 09:24:00;;;;;;;6.60;2.77;;;;;;;5.92;100.00;100638.66;4832996;29;20042;-84
2022/12/30 09:26:28;;;;;;;5.23;3.33;;;;;;;6.00;100.00;100652.63;4807566;29;20038;-82
2022/12/30 09:28:55;;;;;;;6.00;2.93;;;;;;;6.04;100.00;100645.63;4822750;29;20046;-82
2022/12/30 09:31:22;;;;;;;6.97;3.60;;;;;;;5.96;100.00;100650.88;4828322;29;20046;-81
2022/12/30 09:33:49;;;;;;;8.40;3.73;;;;;;;5.92;100.00;100655.28;4818855;29;20046;-83
2022/12/30 09:36:16;;;;;;;8.67;4.17;;;;;;;5.97;100.00;100655.28;4835315;29;20039;-82
2022/12/30 09:38:43;;;;;;;6.70;2.80;;;;;;;6.02;100.00;100636.91;4810394;29;20042;-82
2022/12/30 09:43:15;;;;;;;8.87;4.37;;;;;;;6.07;100.00;100643.03;4821926;29;20497;-82
2022/12/30 09:44:18;;;;;;;5.57;2.70;;;;;;;5.90;100.00;100643.94;4822317;29;20046;-83
2022/12/30 09:46:48;;;;;;;8.33;4.17;;;;;;;5.95;100.00;100649.13;4826874;29;20046;-83
2022/12/30 09:49:23;;;;;;;10.87;4.30;;;;;;;6.10;100.00;100649.13;4810596;29;20567;-83
2022/12/30 09:51:58;;;;;;;8.17;4.27;;;;;;;6.14;100.00;100647.38;4825453;29;20519;-85
2022/12/30 09:54:27;;;;;;;8.13;3.67;;;;;;;6.16;99.67;100646.47;4810629;29;20053;-82
2022/12/30 09:57:30;;;;;;;10.90;4.00;;;;;;;6.16;100.00;100646.47;4838625;29;20061;-84
2022/12/30 09:59:43;;;;;;;8.17;3.10;;;;;;;6.21;99.53;100639.47;4818565;29;20057;-83
2022/12/30 10:02:20;;;;;;;6.73;2.40;;;;;;;6.30;97.84;100633.31;4811710;29;20054;-84
2022/12/30 10:04:48;;;;;;;8.33;2.77;;;;;;;6.31;97.48;100639.47;4822666;29;20048;-82
2022/12/30 10:07:26;;;;;;;6.33;2.20;;;;;;;6.36;98.15;100635.03;4813321;29;20431;-83
2022/12/30 10:09:56;;;;;;;4.00;2.30;;;;;;;6.35;97.85;100634.19;4817931;29;20057;-83
2022/12/30 10:12:28;;;;;;;9.17;4.17;;;;;;;6.41;96.04;100631.53;4810647;29;20065;-82
2022/12/30 10:15:16;;;;;;;7.87;3.90;;;;;;;6.54;95.86;100624.47;4809458;29;20140;-84
2022/12/30 10:18:17;;;;;;;6.20;2.47;;;;;;;6.62;94.60;100624.44;4840985;29;20661;-82
2022/12/30 10:21:09;;;;;;;11.67;5.10;;;;;;;6.57;96.26;100616.59;4827375;29;20046;-84
2022/12/30 10:23:55;;;;;;;7.57;3.20;;;;;;;6.63;95.03;100621.78;4827592;29;20053;-83
2022/12/30 10:26:25;;;;;;;8.97;4.77;;;;;;;6.64;94.18;100617.41;4826000;29;20082;-82
2022/12/30 10:29:04;;;;;;;9.23;3.77;;;;;;;6.72;94.47;100619.13;4797879;29;20046;-83
2022/12/30 10:31:34;;;;;;;10.73;2.60;;;;;;;6.74;94.07;100616.50;4838509;29;20137;-83
2022/12/30 10:34:23;;;;;;;5.17;2.87;;;;;;;6.76;94.30;100604.25;4841110;29;20038;-81
2022/12/30 10:36:56;;;;;;;4.27;2.43;;;;;;;6.87;94.61;100610.28;4822814;29;20047;-82
2022/12/30 10:39:25;;;;;;;5.07;2.43;;;;;;;6.97;93.31;100600.59;4824232;29;20050;-83
2022/12/30 10:42:07;;;;;;;7.20;2.80;;;;;;;6.92;94.22;100598.00;4822622;29;20099;-83
2022/12/30 10:45:02;;;;;;;6.67;2.30;;;;;;;6.92;96.36;100605.03;4810432;29;20042;-82
2022/12/30 10:47:50;;;;;;;4.22;2.08;;;;;;;7.05;95.19;100596.16;4821121;29;20038;-82
2022/12/30 10:50:33;;;;;;;5.93;2.67;;;;;;;7.24;93.00;100597.78;4820591;29;20034;-84
2022/12/30 10:53:02;;;;;;;6.03;2.10;;;;;;;7.34;92.69;100588.94;4807076;29;20047;-83
2022/12/30 10:55:31;;;;;;;5.63;2.10;;;;;;;7.42;92.22;100594.13;4820248;29;20514;-83
2022/12/30 10:58:03;;;;;;;6.03;2.40;;;;;;;7.49;91.58;100590.56;4817381;29;20046;-82
2022/12/30 11:00:32;;;;;;;6.30;2.00;;;;;;;7.69;89.50;100587.75;4819415;29;20049;-83
2022/12/30 11:03:05;;;;;;;6.87;1.77;;;;;;;7.75;90.63;100595.56;4820098;29;20052;-82
2022/12/30 11:05:35;;;;;;;9.53;2.00;;;;;;;7.80;91.44;100590.25;4805713;29;20042;-83
2022/12/30 11:08:04;;;;;;;7.43;2.10;;;;;;;7.98;88.42;100597.94;4830880;29;20424;-82
2022/12/30 11:10:31;;;;;;;6.63;1.90;;;;;;;8.05;86.89;100573.31;4820056;29;20054;-83
2022/12/30 11:16:15;;;;;;;4.00;2.10;;;;;;;8.21;84.91;100571.38;4803033;29;20129;-82
2022/12/30 11:18:44;;;;;;;6.53;1.70;;;;;;;8.18;85.80;100577.56;4820925;29;20062;-84
2022/12/30 11:21:11;;;;;;;5.53;3.17;;;;;;;8.25;86.56;100580.13;4834995;29;20129;-85
2022/12/30 11:23:40;;;;;;;5.60;2.03;;;;;;;8.22;86.95;100582.78;4821795;29;20051;-83
2022/12/30 11:26:08;;;;;;;10.00;2.80;;;;;;;8.20;87.04;100585.44;4834534;29;20341;-82
2022/12/30 11:28:38;;;;;;;4.30;1.77;;;;;;;8.22;87.13;100577.50;4819192;29;20051;-82
2022/12/30 11:31:11;;;;;;;6.07;2.37;;;;;;;8.33;85.81;100573.88;4790076;29;20054;-82
2022/12/30 11:33:44;;;;;;;6.03;1.60;;;;;;;8.28;86.68;100562.50;4821343;29;20035;-82
2022/12/30 11:36:14;;;;;;;6.03;2.40;;;;;;;8.35;84.59;100558.97;4793663;29;20042;-84
2022/12/30 11:38:44;;;;;;;4.83;2.30;;;;;;;8.43;84.25;100557.09;4818029;29;20091;-83
2022/12/30 11:41:17;;;;;;;12.60;10.90;;;;;;;8.47;84.04;100552.66;4833971;29;20095;-82
2022/12/30 11:43:45;;;;;;;26.53;16.17;;;;;;;8.43;83.83;100546.56;4818446;29;20062;-83
2022/12/30 11:46:18;;;;;;;9.57;4.70;;;;;;;8.42;83.12;100536.06;4818886;29;20073;-82
2022/12/30 11:48:49;;;;;;;8.53;6.10;;;;;;;8.34;85.32;100535.25;4835719;29;20046;-80
2022/12/30 11:51:18;;;;;;;5.83;2.73;;;;;;;8.28;86.01;100533.56;4819403;29;20039;-83
2022/12/30 11:53:46;;;;;;;8.43;3.30;;;;;;;8.29;85.71;100537.94;4819265;29;20055;-83
2022/12/30 11:56:20;;;;;;;6.60;4.03;;;;;;;8.31;84.62;100530.00;4820070;29;20134;-82
2022/12/30 11:58:46;;;;;;;9.70;4.80;;;;;;;8.21;86.65;100531.91;4819726;29;20061;-83
2022/12/30 12:01:14;;;;;;;7.43;3.10;;;;;;;8.23;85.68;100539.75;4822044;29;20516;-82
2022/12/30 12:03:50;;;;;;;5.57;2.40;;;;;;;8.25;85.70;100538.00;4804420;29;20046;-84
2022/12/30 12:06:17;;;;;;;6.20;2.60;;;;;;;8.22;86.66;100536.25;4805093;29;20042;-83
2022/12/30 12:08:57;;;;;;;4.13;2.10;;;;;;;8.23;86.04;100543.28;4803645;29;20428;-83
2022/12/30 12:11:28;;;;;;;10.37;3.67;;;;;;;8.15;86.74;100535.47;4827816;29;20049;-82
2022/12/30 12:14:16;;;;;;;11.97;4.30;;;;;;;8.10;86.60;100521.53;4805392;29;20547;-83
2022/12/30 12:17:17;;;;;;;11.17;4.53;;;;;;;8.14;87.11;100530.22;4818399;29;20450;-84
2022/12/30 12:19:55;;;;;;;12.27;6.87;;;;;;;8.10;86.63;100525.91;4836516;29;20584;-83
2022/12/30 12:22:32;;;;;;;4.60;2.87;;;;;;;8.16;86.85;100515.31;4819109;29;20049;-84
2022/12/30 12:25:03;;;;;;;11.37;4.93;;;;;;;8.02;86.82;100517.25;4834978;29;20065;-85
2022/12/30 12:27:30;;;;;;;7.67;3.37;;;;;;;8.04;87.09;100516.31;4818658;29;20129;-83
2022/12/30 12:29:57;;;;;;;13.37;10.57;;;;;;;8.12;86.76;100511.84;4803243;29;20050;-83
2022/12/30 12:32:51;;;;;;;7.90;1.90;;;;;;;8.13;86.77;100507.44;4805183;29;20038;-83
2022/12/30 12:35:32;;;;;;;;;;;;;;;8.06;85.65;100505.78;4788784;29;20042;-84